createdAt,value
2023-04-15T00:01:18.951Z,83.65
2023-04-15T00:04:21.500Z,83.23
2023-04-15T00:07:25.461Z,81.71
2023-04-15T00:10:33.745Z,82.22
2023-04-15T00:13:35.944Z,81.09
2023-04-15T00:16:38.236Z,81.38
2023-04-15T00:19:41.823Z,82.73
2023-04-15T00:22:44.926Z,81.92
2023-04-15T00:25:47.346Z,80.66
2023-04-15T00:28:49.547Z,80.53
2023-04-15T00:31:55.226Z,80.66
2023-04-15T00:34:57.789Z,82.40
2023-04-15T00:38:00.101Z,83.62
2023-04-15T00:41:03.938Z,83.17
2023-04-15T00:44:07.080Z,82.84
2023-04-15T00:47:11.400Z,82.86
2023-04-15T00:50:13.510Z,83.04
2023-04-15T00:53:15.858Z,82.53
2023-04-15T00:56:20.382Z,83.68
2023-04-15T00:59:24.276Z,83.72
2023-04-15T01:02:28.779Z,83.87
2023-04-15T01:05:31.544Z,83.57
2023-04-15T01:08:36.394Z,82.76
2023-04-15T01:11:39.187Z,82.66
2023-04-15T01:14:43.531Z,83.60
2023-04-15T01:17:46.588Z,82.41
2023-04-15T01:20:48.880Z,82.88
2023-04-15T01:23:53.596Z,82.84
2023-04-15T01:26:56.025Z,81.39
2023-04-15T01:30:00.942Z,80.53
2023-04-15T01:33:05.147Z,80.89
2023-04-15T01:36:13.982Z,82.37
2023-04-15T01:39:17.973Z,81.46
2023-04-15T01:42:21.989Z,83.30
2023-04-15T01:45:24.269Z,81.93
2023-04-15T01:48:27.457Z,81.36
2023-04-15T01:51:30.871Z,81.48
2023-04-15T01:54:33.036Z,80.83
2023-04-15T01:57:35.311Z,81.67
2023-04-15T02:00:41.470Z,80.98
2023-04-15T02:03:43.948Z,82.12
2023-04-15T02:06:48.810Z,82.98
2023-04-15T02:09:50.965Z,81.10
2023-04-15T02:12:53.560Z,80.92
2023-04-15T02:15:55.718Z,82.21
2023-04-15T02:19:02.322Z,82.38
2023-04-15T02:22:05.005Z,82.45
2023-04-15T02:25:09.347Z,80.80
2023-04-15T02:28:11.509Z,80.17
2023-04-15T02:31:13.594Z,82.27
2023-04-15T02:34:19.003Z,81.81
2023-04-15T02:37:24.097Z,82.14
2023-04-15T02:40:26.163Z,82.27
2023-04-15T02:43:29.549Z,82.18
2023-04-15T02:46:32.780Z,82.38
2023-04-15T02:49:37.509Z,81.40
2023-04-15T02:52:41.807Z,81.72
2023-04-15T02:55:48.060Z,82.22
2023-04-15T02:58:51.767Z,82.45
2023-04-15T03:02:01.762Z,83.00
2023-04-15T03:05:06.250Z,83.08
2023-04-15T03:08:11.303Z,81.96
2023-04-15T03:11:15.198Z,82.72
2023-04-15T03:14:17.593Z,82.31
2023-04-15T03:17:20.678Z,82.37
2023-04-15T03:20:24.528Z,83.51
2023-04-15T03:23:28.997Z,83.27
2023-04-15T03:26:32.062Z,82.51
2023-04-15T03:29:36.840Z,82.24
2023-04-15T03:32:40.475Z,82.33
2023-04-15T03:35:45.036Z,85.55
2023-04-15T03:38:47.291Z,82.51
2023-04-15T03:41:50.618Z,82.31
2023-04-15T03:44:53.877Z,82.31
2023-04-15T03:48:07.284Z,83.50
2023-04-15T03:51:22.412Z,83.68
2023-04-15T03:54:24.287Z,83.83
2023-04-15T03:57:26.629Z,84.31
2023-04-15T04:00:33.426Z,83.05
2023-04-15T04:03:35.736Z,83.82
2023-04-15T04:06:39.394Z,84.57
2023-04-15T04:09:45.708Z,85.76
2023-04-15T04:12:52.010Z,84.25
2023-04-15T04:15:54.521Z,83.57
2023-04-15T04:18:56.818Z,84.36
2023-04-15T04:21:58.979Z,84.59
2023-04-15T04:25:05.067Z,84.27
2023-04-15T04:28:08.481Z,83.11
2023-04-15T04:31:10.667Z,83.84
2023-04-15T04:34:12.825Z,83.43
2023-04-15T04:37:15.042Z,83.16
2023-04-15T04:40:18.165Z,82.76
2023-04-15T04:43:22.620Z,82.15
2023-04-15T04:46:24.984Z,82.88
2023-04-15T04:49:27.080Z,82.95
2023-04-15T04:52:29.738Z,82.23
2023-04-15T04:55:32.377Z,82.42
2023-04-15T04:58:34.911Z,82.73
2023-04-15T05:01:39.054Z,82.11
2023-04-15T05:04:41.923Z,84.24
2023-04-15T05:07:45.006Z,82.22
2023-04-15T05:10:48.473Z,82.07
2023-04-15T05:13:50.655Z,81.59
2023-04-15T05:16:53.118Z,82.02
2023-04-15T05:19:59.079Z,81.11
2023-04-15T05:23:01.372Z,80.52
2023-04-15T05:26:04.158Z,80.96
2023-04-15T05:29:07.690Z,80.41
2023-04-15T05:32:10.931Z,81.02
2023-04-15T05:35:12.910Z,81.56
2023-04-15T05:38:14.964Z,81.75
2023-04-15T05:41:19.179Z,81.66
2023-04-15T05:44:21.983Z,81.54
2023-04-15T05:47:26.896Z,81.46
2023-04-15T05:50:29.008Z,82.21
2023-04-15T05:53:31.386Z,81.79
2023-04-15T05:56:33.617Z,81.76
2023-04-15T05:59:35.792Z,82.19
2023-04-15T06:02:39.138Z,82.61
2023-04-15T06:05:42.900Z,80.83
2023-04-15T06:08:45.476Z,81.55
2023-04-15T06:11:47.547Z,81.14
2023-04-15T06:14:49.727Z,81.73
2023-04-15T06:17:52.045Z,81.20
2023-04-15T06:20:54.469Z,80.66
2023-04-15T06:24:00.322Z,80.56
2023-04-15T06:27:04.048Z,79.25
2023-04-15T06:30:08.051Z,77.51
2023-04-15T06:33:10.916Z,73.31
2023-04-15T06:36:15.634Z,70.20
2023-04-15T06:39:18.253Z,74.96
2023-04-15T06:42:21.859Z,78.50
2023-04-15T06:45:24.019Z,78.35
2023-04-15T06:48:27.296Z,77.24
2023-04-15T06:51:30.502Z,77.38
2023-04-15T06:54:32.563Z,77.53
2023-04-15T06:57:37.710Z,77.10
2023-04-15T07:00:41.935Z,78.81
2023-04-15T07:03:44.036Z,78.37
2023-04-15T07:06:47.396Z,76.68
2023-04-15T07:09:50.721Z,76.50
2023-04-15T07:12:53.976Z,68.49
2023-04-15T07:15:56.896Z,64.67
2023-04-15T07:19:00.376Z,64.65
2023-04-15T07:22:03.205Z,66.78
2023-04-15T07:25:05.927Z,69.67
2023-04-15T07:28:10.777Z,67.18
2023-04-15T07:31:26.077Z,65.74
2023-04-15T07:34:32.745Z,64.23
2023-04-15T07:37:34.994Z,68.11
2023-04-15T07:40:37.095Z,69.72
2023-04-15T07:43:40.447Z,67.46
2023-04-15T07:46:44.485Z,68.44
2023-04-15T07:49:46.559Z,68.22
2023-04-15T07:52:49.731Z,66.27
2023-04-15T07:55:52.190Z,66.46
2023-04-15T07:58:55.745Z,67.39
2023-04-15T08:02:00.897Z,64.99
2023-04-15T08:05:04.644Z,65.57
2023-04-15T08:08:08.672Z,65.23
2023-04-15T08:11:10.959Z,65.61
2023-04-15T08:14:13.287Z,64.99
2023-04-15T08:17:15.339Z,62.83
2023-04-15T08:20:17.660Z,64.25
2023-04-15T08:23:19.656Z,63.02
2023-04-15T08:26:22.287Z,62.45
2023-04-15T08:29:27.459Z,62.66
2023-04-15T08:32:32.161Z,61.58
2023-04-15T08:35:34.434Z,61.31
2023-04-15T08:38:37.530Z,61.63
2023-04-15T08:41:57.787Z,61.37
2023-04-15T08:45:01.744Z,63.07
2023-04-15T08:48:06.384Z,63.27
2023-04-15T08:51:09.551Z,62.38
2023-04-15T08:54:12.117Z,61.24
2023-04-15T08:57:15.101Z,60.26
2023-04-15T09:00:18.154Z,59.88
2023-04-15T09:03:22.209Z,58.69
2023-04-15T09:06:25.829Z,59.37
2023-04-15T09:09:29.197Z,58.25
2023-04-15T09:12:32.242Z,58.23
2023-04-15T09:15:38.503Z,58.83
2023-04-15T09:18:40.484Z,58.25
2023-04-15T09:21:42.810Z,58.85
2023-04-15T09:24:46.563Z,57.73
2023-04-15T09:28:00.172Z,57.94
2023-04-15T09:31:02.991Z,60.21
2023-04-15T09:34:07.980Z,59.49
2023-04-15T09:37:11.332Z,58.61
2023-04-15T09:40:14.048Z,59.00
2023-04-15T09:43:17.429Z,58.00
2023-04-15T09:46:19.687Z,59.52
2023-04-15T09:49:21.855Z,58.79
2023-04-15T09:52:23.941Z,58.78
2023-04-15T09:55:25.958Z,59.29
2023-04-15T09:58:29.985Z,60.96
2023-04-15T10:01:32.675Z,61.69
2023-04-15T10:04:39.349Z,62.79
2023-04-15T10:07:43.867Z,63.09
2023-04-15T10:10:48.123Z,63.38
2023-04-15T10:13:52.550Z,61.64
2023-04-15T10:17:01.530Z,60.74
2023-04-15T10:20:05.461Z,60.79
2023-04-15T10:23:10.953Z,61.40
2023-04-15T10:26:15.008Z,63.61
2023-04-15T10:29:18.156Z,63.43
2023-04-15T10:32:21.463Z,62.73
2023-04-15T10:35:24.157Z,62.04
2023-04-15T10:38:35.993Z,62.58
2023-04-15T10:41:38.278Z,64.25
2023-04-15T10:44:45.333Z,62.53
2023-04-15T10:47:52.792Z,61.29
2023-04-15T10:50:59.224Z,63.86
2023-04-15T10:54:01.946Z,65.05
2023-04-15T10:57:06.660Z,66.98
2023-04-15T11:00:10.556Z,68.34
2023-04-15T11:03:15.743Z,68.45
2023-04-15T11:06:18.465Z,68.64
2023-04-15T11:09:33.865Z,68.05
2023-04-15T11:12:36.557Z,69.21
2023-04-15T11:15:45.250Z,68.92
2023-04-15T11:19:02.395Z,68.29
2023-04-15T11:22:11.405Z,68.81
2023-04-15T11:25:27.095Z,66.35
2023-04-15T11:28:36.287Z,66.66
2023-04-15T11:31:38.880Z,66.70
2023-04-15T11:34:40.930Z,66.09
2023-04-15T11:37:43.825Z,69.11
2023-04-15T11:40:47.380Z,65.35
2023-04-15T11:43:50.866Z,64.15
2023-04-15T11:46:52.846Z,62.12
2023-04-15T11:49:55.774Z,62.28
2023-04-15T11:53:00.169Z,62.19
2023-04-15T11:56:02.763Z,62.54
2023-04-15T11:59:05.845Z,62.87
2023-04-15T12:02:14.721Z,62.54
2023-04-15T12:05:19.689Z,62.27
2023-04-15T12:08:26.554Z,63.32
2023-04-15T12:11:34.185Z,64.12
2023-04-15T12:14:36.749Z,61.98
2023-04-15T12:17:51.618Z,62.83
2023-04-15T12:20:57.244Z,62.63
2023-04-15T12:24:03.861Z,62.40
2023-04-15T12:27:08.035Z,61.30
2023-04-15T12:30:11.815Z,61.04
2023-04-15T12:33:20.317Z,60.64
2023-04-15T12:36:24.906Z,60.41
2023-04-15T12:39:30.651Z,61.91
2023-04-15T12:42:33.044Z,62.25
2023-04-15T12:45:35.113Z,61.76
2023-04-15T12:48:36.999Z,62.08
2023-04-15T12:51:38.904Z,61.82
2023-04-15T12:54:41.750Z,62.57
2023-04-15T12:57:44.687Z,61.56
2023-04-15T13:00:47.157Z,61.90
2023-04-15T13:03:51.287Z,63.11
2023-04-15T13:06:54.057Z,62.81
2023-04-15T13:09:57.604Z,61.61
2023-04-15T13:13:00.700Z,61.31
2023-04-15T13:16:02.757Z,61.89
2023-04-15T13:19:04.732Z,63.14
2023-04-15T13:22:08.954Z,63.09
2023-04-15T13:25:11.806Z,62.98
2023-04-15T13:28:14.022Z,62.46
2023-04-15T13:31:16.196Z,61.87
2023-04-15T13:34:18.548Z,60.38
2023-04-15T13:37:21.221Z,60.31
2023-04-15T13:40:26.216Z,60.04
2023-04-15T13:43:30.795Z,60.54
2023-04-15T13:46:33.127Z,60.42
2023-04-15T13:49:35.177Z,61.06
2023-04-15T13:52:37.921Z,60.36
2023-04-15T13:55:44.118Z,60.56
2023-04-15T13:58:47.087Z,61.15
2023-04-15T14:01:51.028Z,61.41
2023-04-15T14:04:53.675Z,61.58
2023-04-15T14:07:56.500Z,61.19
2023-04-15T14:10:59.826Z,61.08
2023-04-15T14:14:03.333Z,60.96
2023-04-15T14:17:05.962Z,61.32
2023-04-15T14:20:11.363Z,62.16
2023-04-15T14:23:13.744Z,62.59
2023-04-15T14:26:16.047Z,63.82
2023-04-15T14:29:18.434Z,64.04
2023-04-15T14:32:21.305Z,63.32
2023-04-15T14:35:26.202Z,64.57
2023-04-15T14:38:40.909Z,65.58
2023-04-15T14:41:42.881Z,64.74
2023-04-15T14:44:46.592Z,65.08
2023-04-15T14:47:48.888Z,64.36
2023-04-15T14:50:54.513Z,64.50
2023-04-15T14:53:57.034Z,63.47
2023-04-15T14:57:01.932Z,63.19
2023-04-15T15:00:05.434Z,63.84
2023-04-15T15:03:16.374Z,63.05
2023-04-15T15:06:23.473Z,63.91
2023-04-15T15:09:29.528Z,63.64
2023-04-15T15:12:33.448Z,60.87
2023-04-15T15:15:37.054Z,60.27
2023-04-15T15:18:54.342Z,60.24
2023-04-15T15:21:56.438Z,60.39
2023-04-15T15:25:01.713Z,61.47
2023-04-15T15:28:08.878Z,62.18
2023-04-15T15:31:12.345Z,63.01
2023-04-15T15:34:19.925Z,64.02
2023-04-15T15:37:21.997Z,64.27
2023-04-15T15:40:27.961Z,64.87
2023-04-15T15:43:35.264Z,65.00
2023-04-15T15:46:47.252Z,64.36
2023-04-15T15:49:50.633Z,65.61
2023-04-15T15:52:52.779Z,66.06
2023-04-15T15:55:55.129Z,66.82
2023-04-15T15:58:57.325Z,67.61
2023-04-15T16:02:00.266Z,67.75
2023-04-15T16:05:04.546Z,67.40
2023-04-15T16:08:06.775Z,68.54
2023-04-15T16:11:08.968Z,69.56
2023-04-15T16:14:14.946Z,72.09
2023-04-15T16:25:20.092Z,72.32
2023-04-15T16:37:00.718Z,73.59
2023-04-15T16:45:08.904Z,76.47
2023-04-15T16:49:17.239Z,75.98
2023-04-15T16:52:48.976Z,77.44
2023-04-15T16:58:01.851Z,78.94
2023-04-15T17:01:11.487Z,78.22
2023-04-15T17:04:58.742Z,79.07
2023-04-15T17:09:33.193Z,79.20
2023-04-15T17:13:49.748Z,80.44
2023-04-15T17:17:22.496Z,81.50
2023-04-15T17:43:24.105Z,83.82
2023-04-15T17:46:19.842Z,82.28
2023-04-15T17:52:48.907Z,82.93
2023-04-15T17:56:17.436Z,84.62
2023-04-15T17:59:40.285Z,83.30
2023-04-15T18:02:46.740Z,83.18
2023-04-15T18:06:06.263Z,83.34
2023-04-15T18:09:14.559Z,83.27
2023-04-15T18:12:21.442Z,83.92
2023-04-15T18:15:24.725Z,84.38
2023-04-15T18:18:31.587Z,83.07
2023-04-15T18:21:41.413Z,82.83
2023-04-15T18:24:47.970Z,82.43
2023-04-15T18:28:03.496Z,83.09
2023-04-15T18:31:07.833Z,84.10
2023-04-15T18:34:10.805Z,82.87
2023-04-15T18:37:17.948Z,82.64
2023-04-15T18:40:21.729Z,82.51
2023-04-15T18:43:27.699Z,82.44
2023-04-15T18:46:32.280Z,83.29
2023-04-15T18:49:35.897Z,82.76
2023-04-15T18:52:46.863Z,82.42
2023-04-15T18:55:50.214Z,82.77
2023-04-15T18:59:25.736Z,83.03
2023-04-15T19:02:27.005Z,82.48
2023-04-15T19:05:37.316Z,82.40
2023-04-15T19:08:46.509Z,82.51
2023-04-15T19:11:55.648Z,83.04
2023-04-15T19:14:59.655Z,83.67
2023-04-15T19:18:02.780Z,83.41
2023-04-15T19:21:07.133Z,82.83
2023-04-15T19:24:11.521Z,82.23
2023-04-15T19:27:26.157Z,82.46
2023-04-15T19:30:32.654Z,82.21
2023-04-15T19:33:40.394Z,81.71
2023-04-15T19:37:03.743Z,80.92
2023-04-15T19:43:30.874Z,81.55
2023-04-15T19:46:41.629Z,80.46
2023-04-15T19:50:21.932Z,81.89
2023-04-15T19:53:28.503Z,82.53
2023-04-15T19:56:34.644Z,81.37
2023-04-15T19:59:50.100Z,80.28
2023-04-15T20:03:08.672Z,80.23
2023-04-15T20:06:16.497Z,80.79
2023-04-15T20:09:35.968Z,79.09
2023-04-15T20:12:54.058Z,81.52
2023-04-15T20:16:01.490Z,80.99
2023-04-15T20:19:19.152Z,80.14
2023-04-15T20:22:25.307Z,79.83
2023-04-15T20:25:35.852Z,79.97
2023-04-15T20:28:45.880Z,79.92
2023-04-15T20:32:13.615Z,79.76
2023-04-15T20:35:23.136Z,80.15
2023-04-15T20:38:26.625Z,80.33
2023-04-15T20:41:33.271Z,80.68
2023-04-15T20:44:41.463Z,79.61
2023-04-15T20:47:58.740Z,78.76
2023-04-15T20:51:08.180Z,79.60
2023-04-15T20:54:28.554Z,78.13
2023-04-15T20:57:45.644Z,78.30
2023-04-15T21:00:56.399Z,79.16
2023-04-15T21:04:27.620Z,81.59
2023-04-15T21:07:39.191Z,81.63
2023-04-15T21:11:07.039Z,80.62
2023-04-15T21:14:19.214Z,80.06
2023-04-15T21:17:57.417Z,81.11
2023-04-15T21:21:55.651Z,80.29
2023-04-15T21:31:38.156Z,82.72
2023-04-15T22:13:17.925Z,84.44
2023-04-15T22:39:01.938Z,83.05
2023-04-15T22:42:34.156Z,82.71
2023-04-15T22:46:54.494Z,82.44
2023-04-15T22:50:54.989Z,83.38
2023-04-15T22:54:37.872Z,83.34
2023-04-15T23:01:43.559Z,84.98
2023-04-15T23:05:14.367Z,85.13
2023-04-15T23:18:12.124Z,84.60
2023-04-15T23:25:24.078Z,85.73
2023-04-15T23:34:23.873Z,86.32
2023-04-15T23:37:28.404Z,85.96
2023-04-15T23:41:25.702Z,85.96
2023-04-15T23:49:41.701Z,86.27
2023-04-15T23:53:05.251Z,86.38
2023-04-15T23:56:53.149Z,87.05
